Hundvaag 1 weather for Feb 2011
Month no. 284
Obs.
Da.
Temp. Dew Point Precip. Wind
Speed
Wind gusts Cloud cover Press. Humidity Wind dir. Sunny OPT
01.02.2011 5,4 4,1 6,1 4,8 11,3 0 1011,2 91,0 135,0   52,5 %
02.02.2011 4,6 2,8 0,0 3,2 3,2 2 1015,6 88,0 180,0   62,5 %
03.02.2011 4,1 2,8 1,5 12,9 4,8 5 1004,7 91,0 225,0 1 62,5 %
04.02.2011 2,9 0,4 4,6 33,8 33,8 2 990,9 84,0 225,0 1 37,5 %
05.02.2011 5,1 3,8 4,6 22,5 24,1 1 989,2 91,0 225,0   45,0 %
06.02.2011 3,6 1,8 1,0 1,6 3,2 3 1010,2 88,0 135,0 1 65,0 %
07.02.2011 3,9 2,4 0,0 4,8 4,8 2 1008,8 90,0 135,0 1 60,0 %
08.02.2011 3,7 2,1 0,5 1,6 3,2 2 997,3 89,0 22,5 1 62,5 %
09.02.2011 0,9 -0,7 0,0 0,0 1,6 7 1023,0 89,0   1 72,5 %
10.02.2011 4,6 2,8 5,6 32,2 32,2 0 1007,5 88,0 112,5 1 35,0 %
11.02.2011 1,0 -1,2 0,0 8,0 4,8 6 1005,8 85,0 292,5 1 65,0 %
12.02.2011 -4,1 -10,3 0,0 0,0 0,0 8 1026,1 62,0   1 70,0 %
13.02.2011 0,4 -14,8 0,0 25,7 27,4 3 1017,3 31,0 112,5 1 45,0 %
14.02.2011 0,3 -7,0 0,0 33,8 33,8 0 1015,2 58,0 112,5   32,5 %
15.02.2011 -0,4 -8,6 0,0 12,9 19,3 1 1009,8 54,0 90,0 1 47,5 %
16.02.2011 -1,0 -9,4 0,0 9,7 9,7 0 1008,1 53,0 90,0 1 47,5 %
17.02.2011 0,0 -3,7 0,0 9,7 4,8 1 1014,9 76,0 22,5   52,5 %
18.02.2011 0,9 -4,7 0,0 19,3 19,3 2 1016,9 66,0 112,5 1 47,5 %
19.02.2011 -5,1 -10,8 0,0 14,5 16,1 8 1029,8 64,0 135,0 1 62,5 %
20.02.2011 -3,7 -10,1 0,0 1,6 1,6 9 1030,8 61,0 202,5 1 72,5 %
21.02.2011 -4,4 -7,8 0,0 0,0 1,6 10 1029,5 77,0   1 75,0 %
22.02.2011 -2,9 -8,9 0,0 8,0 8,0 2 1027,4 63,0 135,0   50,0 %
23.02.2011 -4,7 -10,5 0,0 19,3 19,3 7 1027,1 64,0 90,0 1 55,0 %
24.02.2011 -0,4 -5,6 0,0 12,9 11,3 0 1022,4 68,0 67,5   45,0 %
25.02.2011 5,2 2,6 0,0 16,1 19,3 1 1022,4 83,0 135,0 1 52,5 %
26.02.2011 6,9 4,6 0,0 1,6 3,2 0 1015,6 85,0 90,0   60,0 %
27.02.2011 4,3 2,7 3,0 0,0 0,0 0 1016,6 89,0   1 55,0 %
28.02.2011 2,3 0,3 0,0 3,2 3,2 10 1033,9 87,0 292,5 1 80,0 %
                       
                       
                       
Avrg/Sum 1,2 -2,9 26,9 11,2 11,6 3,3 1015,3 75,5 140,6 20 56,1 %